createdAt,value
2019-03-17T00:02:40.768Z,1.82
2019-03-17T00:08:02.625Z,1.93
2019-03-17T00:10:54.947Z,1.57
2019-03-17T00:13:35.038Z,1.70
2019-03-17T00:16:14.992Z,1.75
2019-03-17T00:18:56.303Z,1.70
2019-03-17T00:27:17.379Z,2.20
2019-03-17T00:30:01.753Z,1.70
2019-03-17T00:32:42.702Z,2.13
2019-03-17T00:35:28.365Z,1.90
2019-03-17T00:38:09.279Z,2.00
2019-03-17T00:40:51.182Z,1.80
2019-03-17T00:43:31.674Z,2.20
2019-03-17T00:46:12.330Z,1.90
2019-03-17T00:48:52.717Z,2.37
2019-03-17T00:54:42.247Z,2.30
2019-03-17T00:57:22.146Z,2.40
2019-03-17T01:00:02.226Z,2.02
2019-03-17T01:02:42.302Z,1.85
2019-03-17T01:05:21.745Z,1.90
2019-03-17T01:08:02.407Z,1.90
2019-03-17T01:10:42.841Z,2.43
2019-03-17T01:13:22.945Z,1.87
2019-03-17T01:16:03.523Z,2.10
2019-03-17T01:18:44.329Z,1.50
2019-03-17T01:21:23.952Z,1.40
2019-03-17T01:24:03.838Z,1.80
2019-03-17T01:26:44.860Z,2.10
2019-03-17T01:29:14.205Z,2.00
2019-03-17T01:32:01.163Z,2.40
2019-03-17T01:34:48.029Z,1.77
2019-03-17T01:37:49.558Z,2.00
2019-03-17T01:40:25.600Z,1.98
2019-03-17T01:46:05.340Z,1.65
2019-03-17T01:48:52.497Z,1.80
2019-03-17T01:54:46.104Z,1.80
2019-03-17T01:57:48.428Z,2.23
2019-03-17T02:00:20.548Z,1.40
2019-03-17T02:03:00.549Z,1.67
2019-03-17T02:05:40.857Z,1.70
2019-03-17T02:08:21.859Z,1.43
2019-03-17T02:11:01.456Z,1.83
2019-03-17T02:13:42.270Z,1.80
2019-03-17T02:16:21.946Z,1.90
2019-03-17T02:19:02.636Z,2.07
2019-03-17T02:21:42.603Z,2.10
2019-03-17T02:24:22.513Z,1.93
2019-03-17T02:27:02.865Z,1.93
2019-03-17T02:29:42.790Z,1.80
2019-03-17T02:32:22.143Z,1.77
2019-03-17T02:35:02.659Z,1.87
2019-03-17T02:37:43.134Z,1.80
2019-03-17T02:40:22.971Z,1.53
2019-03-17T02:43:03.112Z,1.63
2019-03-17T02:45:44.486Z,1.67
2019-03-17T02:48:25.032Z,1.60
2019-03-17T02:51:07.027Z,2.10
2019-03-17T02:53:47.383Z,1.60
2019-03-17T02:56:26.805Z,2.03
2019-03-17T02:59:07.053Z,1.97
2019-03-17T03:01:47.827Z,1.50
2019-03-17T03:04:28.463Z,1.73
2019-03-17T03:07:09.389Z,1.82
2019-03-17T03:09:50.053Z,1.95
2019-03-17T03:12:31.108Z,1.97
2019-03-17T03:15:10.734Z,1.77
2019-03-17T03:17:50.487Z,1.50
2019-03-17T03:20:30.836Z,1.93
2019-03-17T03:23:10.765Z,1.80
2019-03-17T03:25:50.895Z,1.37
2019-03-17T03:28:30.567Z,1.40
2019-03-17T03:31:10.634Z,1.37
2019-03-17T03:33:50.518Z,1.70
2019-03-17T03:36:30.770Z,1.60
2019-03-17T03:39:12.175Z,1.30
2019-03-17T03:41:52.507Z,1.20
2019-03-17T03:44:33.774Z,1.27
2019-03-17T03:47:14.890Z,1.80
2019-03-17T03:49:57.298Z,1.80
2019-03-17T03:52:37.593Z,1.35
2019-03-17T03:55:18.334Z,1.57
2019-03-17T03:57:59.307Z,2.08
2019-03-17T04:00:39.314Z,1.50
2019-03-17T04:03:19.226Z,1.37
2019-03-17T04:05:58.850Z,1.67
2019-03-17T04:08:39.223Z,1.70
2019-03-17T04:11:19.594Z,1.40
2019-03-17T04:13:59.713Z,1.40
2019-03-17T04:16:41.857Z,1.70
2019-03-17T04:19:22.520Z,1.50
2019-03-17T04:22:03.001Z,1.60
2019-03-17T04:24:42.919Z,1.20
2019-03-17T04:27:23.293Z,2.00
2019-03-17T04:30:03.736Z,1.10
2019-03-17T04:32:43.867Z,1.50
2019-03-17T04:35:23.879Z,1.57
2019-03-17T04:38:04.413Z,1.60
2019-03-17T04:40:44.053Z,1.73
2019-03-17T04:43:25.130Z,1.63
2019-03-17T04:46:05.729Z,1.33
2019-03-17T04:48:45.985Z,1.40
2019-03-17T04:51:25.854Z,1.67
2019-03-17T04:54:05.842Z,1.37
2019-03-17T04:56:46.517Z,1.17
2019-03-17T04:59:26.659Z,1.70
2019-03-17T05:02:06.279Z,1.80
2019-03-17T05:04:46.364Z,1.63
2019-03-17T05:07:26.185Z,1.70
2019-03-17T05:10:06.848Z,1.50
2019-03-17T05:12:46.729Z,1.60
2019-03-17T05:15:27.296Z,1.60
2019-03-17T05:18:07.392Z,1.87
2019-03-17T05:20:48.433Z,2.10
2019-03-17T05:23:16.065Z,1.30
2019-03-17T05:26:02.645Z,3.10
2019-03-17T05:28:50.833Z,1.67
2019-03-17T05:31:37.485Z,1.60
2019-03-17T05:34:24.334Z,1.67
2019-03-17T05:37:12.401Z,2.00
2019-03-17T05:39:59.795Z,1.70
2019-03-17T05:42:46.517Z,2.00
2019-03-17T05:45:33.003Z,1.60
2019-03-17T05:48:20.434Z,1.77
2019-03-17T05:51:07.063Z,1.90
2019-03-17T05:53:54.049Z,1.70
2019-03-17T05:56:41.370Z,1.50
2019-03-17T05:59:21.526Z,1.80
2019-03-17T06:02:01.615Z,1.60
2019-03-17T06:04:40.806Z,1.72
2019-03-17T06:07:21.406Z,2.10
2019-03-17T06:10:01.439Z,1.50
2019-03-17T06:12:42.078Z,1.80
2019-03-17T06:15:22.397Z,1.73
2019-03-17T06:18:01.781Z,2.17
2019-03-17T06:20:41.989Z,1.60
2019-03-17T06:23:21.246Z,1.73
2019-03-17T06:26:01.628Z,1.60
2019-03-17T06:28:41.623Z,1.37
2019-03-17T06:31:21.712Z,2.03
2019-03-17T06:34:01.990Z,1.30
2019-03-17T06:36:42.366Z,1.60
2019-03-17T06:39:22.966Z,1.50
2019-03-17T06:42:03.112Z,1.47
2019-03-17T06:44:43.153Z,1.40
2019-03-17T06:47:23.377Z,1.80
2019-03-17T06:50:03.162Z,1.90
2019-03-17T06:52:43.168Z,1.57
2019-03-17T06:55:23.473Z,1.67
2019-03-17T06:58:03.216Z,2.27
2019-03-17T07:00:43.169Z,1.80
2019-03-17T07:03:23.233Z,1.80
2019-03-17T07:06:02.850Z,1.40
2019-03-17T07:08:43.513Z,1.60
2019-03-17T07:11:23.043Z,1.87
2019-03-17T07:14:03.517Z,2.00
2019-03-17T07:16:43.277Z,1.53
2019-03-17T07:19:23.454Z,1.90
2019-03-17T07:22:02.826Z,2.00
2019-03-17T07:24:44.679Z,1.57
2019-03-17T07:27:24.388Z,1.50
2019-03-17T07:30:05.178Z,1.80
2019-03-17T07:32:44.680Z,1.97
2019-03-17T07:35:25.300Z,1.80
2019-03-17T07:38:05.671Z,1.40
2019-03-17T07:40:45.097Z,2.00
2019-03-17T07:43:26.259Z,1.70
2019-03-17T07:46:06.423Z,1.63
2019-03-17T07:48:47.123Z,1.70
2019-03-17T07:51:28.222Z,2.00
2019-03-17T07:54:08.482Z,2.10
2019-03-17T07:56:48.755Z,1.93
2019-03-17T07:59:17.612Z,1.80
2019-03-17T08:02:04.456Z,2.30
2019-03-17T08:04:52.381Z,2.20
2019-03-17T08:07:38.937Z,1.80
2019-03-17T08:10:26.330Z,1.93
2019-03-17T08:13:15.966Z,2.03
2019-03-17T08:16:02.690Z,2.10
2019-03-17T08:18:49.538Z,2.20
2019-03-17T08:21:38.191Z,1.90
2019-03-17T08:24:24.887Z,1.80
2019-03-17T08:27:11.549Z,2.53
2019-03-17T08:29:58.316Z,2.17
2019-03-17T08:32:47.205Z,2.40
2019-03-17T08:35:33.898Z,2.27
2019-03-17T08:38:22.102Z,2.33
2019-03-17T08:41:09.794Z,1.83
2019-03-17T08:43:57.221Z,2.50
2019-03-17T08:46:44.950Z,2.50
2019-03-17T08:49:31.813Z,2.30
2019-03-17T08:52:18.278Z,2.27
2019-03-17T08:55:04.785Z,2.60
2019-03-17T08:57:51.821Z,2.23
2019-03-17T09:00:32.008Z,2.00
2019-03-17T09:03:11.930Z,2.50
2019-03-17T09:05:52.066Z,2.60
2019-03-17T09:08:35.316Z,2.60
2019-03-17T09:11:14.227Z,2.57
2019-03-17T09:13:54.855Z,2.07
2019-03-17T09:16:34.893Z,2.50
2019-03-17T09:19:14.989Z,2.93
2019-03-17T09:21:54.750Z,2.40
2019-03-17T09:24:35.012Z,2.10
2019-03-17T09:27:14.830Z,2.13
2019-03-17T09:29:54.046Z,2.20
2019-03-17T09:32:33.556Z,2.90
2019-03-17T09:35:13.510Z,2.20
2019-03-17T09:37:53.432Z,2.20
2019-03-17T09:40:33.325Z,2.10
2019-03-17T09:43:13.529Z,2.10
2019-03-17T09:45:53.973Z,2.37
2019-03-17T09:48:33.380Z,2.73
2019-03-17T09:51:13.758Z,2.57
2019-03-17T09:53:53.847Z,2.33
2019-03-17T09:56:35.007Z,2.07
2019-03-17T09:59:14.946Z,2.57
2019-03-17T10:01:55.433Z,2.33
2019-03-17T10:04:35.289Z,2.20
2019-03-17T10:07:14.566Z,2.07
2019-03-17T10:09:55.471Z,2.47
2019-03-17T10:12:35.310Z,2.30
2019-03-17T10:15:14.823Z,2.67
2019-03-17T10:17:55.117Z,2.10
2019-03-17T10:20:37.317Z,2.50
2019-03-17T10:23:19.231Z,2.60
2019-03-17T10:26:00.731Z,3.10
2019-03-17T10:28:40.758Z,2.37
2019-03-17T10:31:21.166Z,1.93
2019-03-17T10:34:01.394Z,1.67
2019-03-17T10:36:42.547Z,2.73
2019-03-17T10:39:22.470Z,2.20
2019-03-17T10:42:02.386Z,2.23
2019-03-17T10:44:44.088Z,2.37
2019-03-17T10:47:24.140Z,1.80
2019-03-17T10:50:04.078Z,2.10
2019-03-17T10:52:43.405Z,3.07
2019-03-17T10:55:24.106Z,2.00
2019-03-17T10:58:04.073Z,1.83
2019-03-17T11:00:44.230Z,1.93
2019-03-17T11:03:23.897Z,2.60
2019-03-17T11:06:03.730Z,2.07
2019-03-17T11:08:44.985Z,2.30
2019-03-17T11:11:24.433Z,2.33
2019-03-17T11:14:04.915Z,2.87
2019-03-17T11:16:46.401Z,1.90
2019-03-17T11:19:26.910Z,1.97
2019-03-17T11:22:08.738Z,1.97
2019-03-17T11:24:49.205Z,2.10
2019-03-17T11:27:29.330Z,1.90
2019-03-17T11:30:09.294Z,2.00
2019-03-17T11:32:50.134Z,1.90
2019-03-17T11:35:31.091Z,1.87
2019-03-17T11:38:11.253Z,1.90
2019-03-17T11:40:51.745Z,2.20
2019-03-17T11:43:31.685Z,2.20
2019-03-17T11:46:12.882Z,2.10
2019-03-17T11:48:53.530Z,1.80
2019-03-17T11:51:33.206Z,2.47
2019-03-17T11:54:13.221Z,2.30
2019-03-17T11:56:53.730Z,2.20
2019-03-17T11:59:33.489Z,2.40
2019-03-17T12:02:25.694Z,2.77
2019-03-17T12:04:56.435Z,2.03
2019-03-17T12:07:36.993Z,3.00
2019-03-17T12:10:17.080Z,2.23
2019-03-17T12:12:57.702Z,2.47
2019-03-17T12:15:37.778Z,2.60
2019-03-17T12:18:17.906Z,2.20
2019-03-17T12:20:58.138Z,2.93
2019-03-17T12:23:37.982Z,2.90
2019-03-17T12:26:18.289Z,2.37
2019-03-17T12:28:58.262Z,2.20
2019-03-17T12:31:38.441Z,2.40
2019-03-17T12:34:27.811Z,2.87
2019-03-17T12:37:00.503Z,2.47
2019-03-17T12:39:40.135Z,2.40
2019-03-17T12:42:20.594Z,1.90
2019-03-17T12:45:00.658Z,2.23
2019-03-17T12:47:41.020Z,2.03
2019-03-17T12:50:20.801Z,2.00
2019-03-17T12:53:00.961Z,2.03
2019-03-17T12:55:41.152Z,2.13
2019-03-17T12:58:21.547Z,2.40
2019-03-17T13:01:01.234Z,2.50
2019-03-17T13:03:41.617Z,1.77
2019-03-17T13:06:21.517Z,1.80
2019-03-17T13:09:01.602Z,1.63
2019-03-17T13:11:41.995Z,1.27
2019-03-17T13:14:21.802Z,0.67
2019-03-17T13:17:01.933Z,0.60
2019-03-17T13:19:42.315Z,1.00
2019-03-17T13:22:22.491Z,0.80
2019-03-17T13:25:02.380Z,1.27
2019-03-17T13:27:42.733Z,0.60
2019-03-17T13:30:22.617Z,0.90
2019-03-17T13:33:02.595Z,0.90
2019-03-17T13:35:42.602Z,0.60
2019-03-17T13:38:22.630Z,1.37
2019-03-17T13:41:02.341Z,0.60
2019-03-17T13:43:43.733Z,1.00
2019-03-17T13:46:24.159Z,2.93
2019-03-17T13:49:04.089Z,2.30
2019-03-17T13:51:43.974Z,1.13
2019-03-17T13:54:24.256Z,1.10
2019-03-17T13:57:04.161Z,0.63
2019-03-17T13:59:43.758Z,0.77
2019-03-17T14:02:23.866Z,0.73
2019-03-17T14:05:03.618Z,0.70
2019-03-17T14:07:43.998Z,0.50
2019-03-17T14:10:24.162Z,0.60
2019-03-17T14:13:04.501Z,0.60
2019-03-17T14:15:44.306Z,0.60
2019-03-17T14:18:24.783Z,0.50
2019-03-17T14:21:05.200Z,0.63
2019-03-17T14:23:44.714Z,0.70
2019-03-17T14:26:25.417Z,1.90
2019-03-17T14:29:05.023Z,1.03
2019-03-17T14:31:45.240Z,0.60
2019-03-17T14:34:25.715Z,0.40
2019-03-17T14:37:05.384Z,0.60
2019-03-17T14:39:45.509Z,0.67
2019-03-17T14:42:25.394Z,0.63
2019-03-17T14:45:05.937Z,0.73
2019-03-17T14:47:45.876Z,0.50
2019-03-17T14:50:26.019Z,0.80
2019-03-17T14:53:05.909Z,0.50
2019-03-17T14:55:45.790Z,0.60
2019-03-17T14:58:25.873Z,0.60
2019-03-17T15:01:05.644Z,0.60
2019-03-17T15:03:45.762Z,0.60
2019-03-17T15:06:13.185Z,0.50
2019-03-17T15:09:00.048Z,0.77
2019-03-17T15:11:46.941Z,0.70
2019-03-17T15:14:33.998Z,0.95
2019-03-17T15:17:20.586Z,0.57
2019-03-17T15:20:07.957Z,0.70
2019-03-17T15:22:54.980Z,0.70
2019-03-17T15:28:52.301Z,0.70
2019-03-17T15:31:39.071Z,0.90
2019-03-17T15:34:25.885Z,0.75
2019-03-17T15:37:12.834Z,0.50
2019-03-17T15:39:59.505Z,0.80
2019-03-17T15:42:47.166Z,0.83
2019-03-17T15:45:35.407Z,0.70
2019-03-17T15:48:21.886Z,0.90
2019-03-17T15:51:19.470Z,0.77
2019-03-17T15:53:57.976Z,0.80
2019-03-17T15:56:44.769Z,0.70
2019-03-17T15:59:31.792Z,0.80
2019-03-17T16:02:11.826Z,0.80
2019-03-17T16:04:51.974Z,0.83
2019-03-17T16:07:41.698Z,1.00
2019-03-17T16:10:14.089Z,0.83
2019-03-17T16:12:54.021Z,0.87
2019-03-17T16:15:33.866Z,1.07
2019-03-17T16:18:13.971Z,1.20
2019-03-17T16:20:54.654Z,1.13
2019-03-17T16:23:34.226Z,1.20
2019-03-17T16:26:14.499Z,1.02
2019-03-17T16:28:54.715Z,1.07
2019-03-17T16:31:34.906Z,1.07
2019-03-17T16:34:14.890Z,1.00
2019-03-17T16:36:55.054Z,0.80
2019-03-17T16:39:35.465Z,1.10
2019-03-17T16:42:15.612Z,1.10
2019-03-17T16:44:56.121Z,1.30
2019-03-17T16:47:35.951Z,1.25
2019-03-17T16:50:16.411Z,1.32
2019-03-17T16:52:56.102Z,1.17
2019-03-17T16:55:36.186Z,1.10
2019-03-17T16:58:16.167Z,1.00
2019-03-17T17:00:56.392Z,1.02
2019-03-17T17:03:36.775Z,1.10
2019-03-17T17:06:17.253Z,1.17
2019-03-17T17:08:57.466Z,1.10
2019-03-17T17:11:37.370Z,1.30
2019-03-17T17:14:17.562Z,1.50
2019-03-17T17:16:57.588Z,1.20
2019-03-17T17:19:38.150Z,1.20
2019-03-17T17:22:18.457Z,1.22
2019-03-17T17:24:58.317Z,1.27
2019-03-17T17:27:38.139Z,1.47
2019-03-17T17:30:18.922Z,1.27
2019-03-17T17:32:59.087Z,1.62
2019-03-17T17:35:38.850Z,1.60
2019-03-17T17:38:19.269Z,1.10
2019-03-17T17:40:59.851Z,1.60
2019-03-17T17:43:39.667Z,1.40
2019-03-17T17:46:20.961Z,1.73
2019-03-17T17:49:00.978Z,1.40
2019-03-17T17:51:41.121Z,1.60
2019-03-17T17:54:21.459Z,1.50
2019-03-17T17:57:01.513Z,1.80
2019-03-17T17:59:41.526Z,1.40
2019-03-17T18:02:21.692Z,1.35
2019-03-17T18:05:01.224Z,0.90
2019-03-17T18:07:40.428Z,0.90
2019-03-17T18:10:20.966Z,0.78
2019-03-17T18:13:01.155Z,0.72
2019-03-17T18:15:41.429Z,0.60
2019-03-17T18:18:09.085Z,0.60
2019-03-17T18:20:56.193Z,0.60
2019-03-17T18:23:42.920Z,0.80
2019-03-17T18:26:29.646Z,0.68
2019-03-17T18:29:23.381Z,0.62
2019-03-17T18:32:11.530Z,0.80
2019-03-17T18:34:58.187Z,0.85
2019-03-17T18:37:45.618Z,0.60
2019-03-17T18:40:32.316Z,0.88
2019-03-17T18:43:18.934Z,0.75
2019-03-17T18:46:06.060Z,1.10
2019-03-17T18:48:53.151Z,1.25
2019-03-17T18:51:40.542Z,1.55
2019-03-17T18:54:27.654Z,1.50
2019-03-17T18:57:14.377Z,1.17
2019-03-17T19:00:04.482Z,1.35
2019-03-17T19:02:44.837Z,1.30
2019-03-17T19:05:24.871Z,1.40
2019-03-17T19:08:05.225Z,2.08
2019-03-17T19:10:45.477Z,1.35
2019-03-17T19:13:25.329Z,1.50
2019-03-17T19:16:05.389Z,1.20
2019-03-17T19:18:45.933Z,1.50
2019-03-17T19:21:25.937Z,1.17
2019-03-17T19:24:07.507Z,1.20
2019-03-17T19:26:48.153Z,1.77
2019-03-17T19:29:28.581Z,1.35
2019-03-17T19:32:08.634Z,1.22
2019-03-17T19:34:48.276Z,1.20
2019-03-17T19:37:28.682Z,1.30
2019-03-17T19:40:08.920Z,1.10
2019-03-17T19:42:58.616Z,1.70
2019-03-17T19:45:30.902Z,1.17
2019-03-17T19:48:11.570Z,1.20
2019-03-17T19:50:51.473Z,1.12
2019-03-17T19:56:43.218Z,1.22
2019-03-17T19:59:22.655Z,1.05
2019-03-17T20:01:49.849Z,1.45
2019-03-17T20:04:36.314Z,1.40
2019-03-17T20:07:22.897Z,1.22
2019-03-17T20:10:10.625Z,1.02
2019-03-17T20:13:10.276Z,1.30
2019-03-17T20:15:47.409Z,1.30
2019-03-17T20:18:34.325Z,1.40
2019-03-17T20:21:20.890Z,1.50
2019-03-17T20:24:08.448Z,1.40
2019-03-17T20:26:55.001Z,1.75
2019-03-17T20:29:41.989Z,2.00
2019-03-17T20:32:29.217Z,2.10
2019-03-17T20:35:16.367Z,1.92
2019-03-17T20:38:02.946Z,2.30
2019-03-17T20:40:49.434Z,2.58
2019-03-17T20:43:37.128Z,2.20
2019-03-17T20:46:24.249Z,2.30
2019-03-17T20:49:11.778Z,2.30
2019-03-17T20:51:58.457Z,2.10
2019-03-17T20:54:45.286Z,2.70
2019-03-17T20:57:31.948Z,2.65
2019-03-17T21:00:18.912Z,3.12
2019-03-17T21:02:59.011Z,2.70
2019-03-17T21:05:39.052Z,2.42
2019-03-17T21:08:20.791Z,2.40
2019-03-17T21:11:02.189Z,2.55
2019-03-17T21:13:46.898Z,2.80
2019-03-17T21:16:24.265Z,2.70
2019-03-17T21:19:04.800Z,2.67
2019-03-17T21:21:44.828Z,2.60
2019-03-17T21:24:25.989Z,2.37
2019-03-17T21:27:06.408Z,2.25
2019-03-17T21:29:46.578Z,2.55
2019-03-17T21:32:26.755Z,2.30
2019-03-17T21:35:06.690Z,3.37
2019-03-17T21:37:47.562Z,1.90
2019-03-17T21:40:27.524Z,2.00
2019-03-17T21:43:07.260Z,2.12
2019-03-17T21:45:48.367Z,2.52
2019-03-17T21:48:28.578Z,2.35
2019-03-17T21:51:09.138Z,2.30
2019-03-17T21:53:49.517Z,2.52
2019-03-17T21:56:29.937Z,2.40
2019-03-17T21:59:09.653Z,2.00
2019-03-17T22:01:49.999Z,2.05
2019-03-17T22:04:30.067Z,2.00
2019-03-17T22:07:10.019Z,1.92
2019-03-17T22:09:49.714Z,1.72
2019-03-17T22:12:29.657Z,2.50
2019-03-17T22:15:09.805Z,1.95
2019-03-17T22:17:49.881Z,2.90
2019-03-17T22:20:29.558Z,1.67
2019-03-17T22:23:10.565Z,2.00
2019-03-17T22:25:50.488Z,2.15
2019-03-17T22:28:30.402Z,2.20
2019-03-17T22:31:10.444Z,2.10
2019-03-17T22:33:50.678Z,2.05
2019-03-17T22:36:30.774Z,1.67
2019-03-17T22:39:11.481Z,0.90
2019-03-17T22:41:52.027Z,1.10
2019-03-17T22:44:32.010Z,1.00
2019-03-17T22:47:12.525Z,0.98
2019-03-17T22:49:52.550Z,0.72
2019-03-17T22:52:32.534Z,0.95
2019-03-17T22:55:13.025Z,1.07
2019-03-17T22:57:53.149Z,0.82
2019-03-17T23:03:41.618Z,1.15
2019-03-17T23:06:21.730Z,1.12
2019-03-17T23:09:02.277Z,0.90
2019-03-17T23:11:42.878Z,1.05
2019-03-17T23:14:22.609Z,1.05
2019-03-17T23:17:02.417Z,1.32
2019-03-17T23:19:42.127Z,0.80
2019-03-17T23:22:22.530Z,1.10
2019-03-17T23:25:02.347Z,1.05
2019-03-17T23:27:42.642Z,1.00
2019-03-17T23:30:22.578Z,1.40
2019-03-17T23:33:02.585Z,0.90
2019-03-17T23:35:42.889Z,1.10
2019-03-17T23:38:22.925Z,1.05
2019-03-17T23:41:02.478Z,1.10
2019-03-17T23:43:42.914Z,1.22
2019-03-17T23:46:23.089Z,1.17
2019-03-17T23:49:03.259Z,1.15
2019-03-17T23:51:43.559Z,1.80
2019-03-17T23:54:23.397Z,1.80
2019-03-17T23:57:03.294Z,1.70
2019-03-17T23:59:43.749Z,2.27
